createdAt,value
2023-07-12T00:01:28.050Z,4.95
2023-07-12T00:03:58.112Z,5.15
2023-07-12T00:06:38.875Z,5.43
2023-07-12T00:09:14.168Z,5.10
2023-07-12T00:11:42.408Z,5.05
2023-07-12T00:14:09.459Z,5.43
2023-07-12T00:16:40.798Z,5.20
2023-07-12T00:19:14.372Z,5.45
2023-07-12T00:21:41.783Z,5.72
2023-07-12T00:24:10.672Z,4.28
2023-07-12T00:26:38.791Z,5.65
2023-07-12T00:29:08.402Z,5.25
2023-07-12T00:31:40.882Z,5.72
2023-07-12T00:34:08.145Z,4.72
2023-07-12T00:36:36.197Z,4.93
2023-07-12T00:39:06.489Z,5.25
2023-07-12T00:41:46.580Z,5.63
2023-07-12T00:44:22.859Z,6.30
2023-07-12T00:46:53.980Z,4.93
2023-07-12T00:49:21.177Z,5.30
2023-07-12T00:52:08.186Z,5.50
2023-07-12T00:54:54.790Z,5.75
2023-07-12T00:57:24.182Z,6.88
2023-07-12T00:59:53.934Z,5.38
2023-07-12T01:02:24.690Z,4.78
2023-07-12T01:04:57.255Z,5.40
2023-07-12T01:07:28.678Z,5.35
2023-07-12T01:09:55.840Z,5.50
2023-07-12T01:12:22.974Z,5.38
2023-07-12T01:14:50.614Z,5.68
2023-07-12T01:17:17.695Z,5.40
2023-07-12T01:19:49.431Z,5.13
2023-07-12T01:22:16.625Z,5.93
2023-07-12T01:24:43.903Z,5.15
2023-07-12T01:27:18.467Z,5.85
2023-07-12T01:29:46.722Z,5.05
2023-07-12T01:32:14.858Z,5.25
2023-07-12T01:34:47.001Z,5.40
2023-07-12T01:37:14.532Z,5.05
2023-07-12T01:39:41.890Z,5.03
2023-07-12T01:42:12.442Z,5.60
2023-07-12T01:44:43.764Z,5.45
2023-07-12T01:47:11.453Z,6.05
2023-07-12T01:49:38.507Z,5.40
2023-07-12T01:52:07.353Z,4.85
2023-07-12T01:54:34.522Z,5.20
2023-07-12T01:57:01.657Z,4.55
2023-07-12T01:59:28.678Z,5.00
2023-07-12T02:01:55.787Z,5.30
2023-07-12T02:04:22.994Z,4.80
2023-07-12T02:06:50.022Z,5.43
2023-07-12T02:09:17.717Z,4.93
2023-07-12T02:11:44.753Z,5.45
2023-07-12T02:14:12.016Z,4.78
2023-07-12T02:16:39.325Z,5.07
2023-07-12T02:19:06.609Z,4.90
2023-07-12T02:21:33.513Z,4.40
2023-07-12T02:24:01.750Z,4.90
2023-07-12T02:26:28.806Z,4.78
2023-07-12T02:28:55.769Z,4.20
2023-07-12T02:31:25.214Z,5.15
2023-07-12T02:33:54.912Z,4.57
2023-07-12T02:36:22.057Z,4.68
2023-07-12T02:38:49.182Z,4.97
2023-07-12T02:41:17.408Z,4.22
2023-07-12T02:43:48.770Z,5.13
2023-07-12T02:46:16.595Z,5.43
2023-07-12T02:48:45.400Z,4.97
2023-07-12T02:51:12.974Z,4.75
2023-07-12T02:53:41.443Z,4.97
2023-07-12T02:56:09.917Z,5.25
2023-07-12T02:58:37.495Z,4.90
2023-07-12T03:01:04.647Z,6.22
2023-07-12T03:03:31.952Z,4.38
2023-07-12T03:06:04.412Z,4.13
2023-07-12T03:08:31.525Z,4.78
2023-07-12T03:10:59.888Z,4.32
2023-07-12T03:13:27.242Z,3.80
2023-07-12T03:15:54.221Z,4.25
2023-07-12T03:18:21.767Z,4.15
2023-07-12T03:20:49.421Z,4.30
2023-07-12T03:23:18.040Z,4.75
2023-07-12T03:25:46.833Z,4.60
2023-07-12T03:28:14.483Z,4.70
2023-07-12T03:30:41.665Z,4.50
2023-07-12T03:33:09.257Z,4.95
2023-07-12T03:35:36.368Z,4.13
2023-07-12T03:38:03.462Z,4.50
2023-07-12T03:40:31.039Z,3.92
2023-07-12T03:42:58.130Z,4.57
2023-07-12T03:45:25.283Z,5.20
2023-07-12T03:47:52.600Z,5.15
2023-07-12T03:50:19.776Z,4.60
2023-07-12T03:52:46.787Z,4.50
2023-07-12T03:55:13.942Z,4.65
2023-07-12T03:57:43.271Z,4.57
2023-07-12T04:00:14.036Z,4.00
2023-07-12T04:02:42.466Z,4.90
2023-07-12T04:05:09.672Z,4.18
2023-07-12T04:07:36.678Z,4.95
2023-07-12T04:10:04.526Z,5.07
2023-07-12T04:12:32.037Z,4.63
2023-07-12T04:15:00.071Z,4.45
2023-07-12T04:17:27.798Z,4.32
2023-07-12T04:19:54.951Z,4.13
2023-07-12T04:22:22.008Z,4.45
2023-07-12T04:24:53.991Z,4.93
2023-07-12T04:27:21.380Z,4.30
2023-07-12T04:29:49.683Z,4.97
2023-07-12T04:32:18.989Z,5.15
2023-07-12T04:34:48.413Z,4.70
2023-07-12T04:37:19.013Z,5.22
2023-07-12T04:39:46.128Z,4.60
2023-07-12T04:42:13.210Z,4.70
2023-07-12T04:44:42.540Z,4.47
2023-07-12T04:47:10.425Z,4.53
2023-07-12T04:49:37.768Z,4.15
2023-07-12T04:52:07.114Z,4.47
2023-07-12T04:54:35.630Z,5.22
2023-07-12T04:57:02.721Z,5.10
2023-07-12T04:59:29.942Z,5.32
2023-07-12T05:01:57.032Z,5.30
2023-07-12T05:04:24.005Z,5.95
2023-07-12T05:06:53.097Z,7.07
2023-07-12T05:09:21.484Z,6.60
2023-07-12T05:11:50.050Z,6.55
2023-07-12T05:14:17.806Z,7.60
2023-07-12T05:16:44.880Z,6.75
2023-07-12T05:19:12.526Z,8.45
2023-07-12T05:21:39.904Z,6.60
2023-07-12T05:24:07.054Z,6.90
2023-07-12T05:26:34.852Z,5.93
2023-07-12T05:29:02.249Z,7.45
2023-07-12T05:31:29.300Z,5.28
2023-07-12T05:33:56.413Z,5.07
2023-07-12T05:36:23.469Z,6.35
2023-07-12T05:38:50.661Z,4.90
2023-07-12T05:41:17.691Z,4.93
2023-07-12T05:43:44.873Z,5.38
2023-07-12T05:46:12.030Z,5.00
2023-07-12T05:48:39.224Z,5.47
2023-07-12T05:51:09.427Z,6.25
2023-07-12T05:53:36.954Z,5.78
2023-07-12T05:56:06.138Z,5.60
2023-07-12T05:58:33.354Z,5.00
2023-07-12T06:01:02.248Z,5.28
2023-07-12T06:03:31.026Z,5.28
2023-07-12T06:05:58.562Z,5.45
2023-07-12T06:08:27.167Z,4.95
2023-07-12T06:10:55.452Z,4.70
2023-07-12T06:13:22.581Z,4.78
2023-07-12T06:15:49.694Z,4.60
2023-07-12T06:18:16.911Z,4.65
2023-07-12T06:20:43.957Z,4.82
2023-07-12T06:23:11.141Z,5.00
2023-07-12T06:25:39.101Z,4.45
2023-07-12T06:28:06.179Z,4.85
2023-07-12T06:30:33.199Z,4.78
2023-07-12T06:33:00.379Z,5.45
2023-07-12T06:35:27.451Z,5.15
2023-07-12T06:37:54.587Z,5.10
2023-07-12T06:40:21.618Z,5.38
2023-07-12T06:42:49.168Z,5.53
2023-07-12T06:45:16.540Z,4.82
2023-07-12T06:47:43.638Z,4.70
2023-07-12T06:50:11.145Z,4.40
2023-07-12T06:52:38.239Z,5.15
2023-07-12T06:55:05.838Z,4.82
2023-07-12T06:57:35.236Z,3.88
2023-07-12T07:00:08.710Z,4.20
2023-07-12T07:02:36.968Z,4.75
2023-07-12T07:05:05.459Z,4.75
2023-07-12T07:07:37.579Z,4.55
2023-07-12T07:10:04.893Z,4.05
2023-07-12T07:12:33.319Z,4.65
2023-07-12T07:15:00.432Z,5.32
2023-07-12T07:17:27.779Z,4.72
2023-07-12T07:19:54.920Z,4.65
2023-07-12T07:22:22.057Z,4.25
2023-07-12T07:24:49.219Z,4.20
2023-07-12T07:27:16.335Z,4.70
2023-07-12T07:29:43.502Z,4.70
2023-07-12T07:32:10.581Z,4.40
2023-07-12T07:34:37.768Z,5.07
2023-07-12T07:37:05.237Z,4.57
2023-07-12T07:39:32.648Z,4.53
2023-07-12T07:42:02.756Z,4.30
2023-07-12T07:44:30.001Z,4.45
2023-07-12T07:46:57.157Z,4.20
2023-07-12T07:49:24.292Z,4.32
2023-07-12T07:51:51.491Z,4.18
2023-07-12T07:54:18.772Z,3.42
2023-07-12T07:56:46.020Z,4.07
2023-07-12T07:59:13.715Z,4.22
2023-07-12T08:01:40.935Z,4.50
2023-07-12T08:04:09.948Z,4.22
2023-07-12T08:06:39.777Z,4.53
2023-07-12T08:09:08.787Z,4.28
2023-07-12T08:11:36.956Z,4.43
2023-07-12T08:14:04.612Z,4.03
2023-07-12T08:16:35.020Z,4.72
2023-07-12T08:19:09.096Z,4.43
2023-07-12T08:21:44.215Z,3.70
2023-07-12T08:24:11.907Z,4.10
2023-07-12T08:26:40.367Z,4.63
2023-07-12T08:29:10.793Z,4.15
2023-07-12T08:31:37.939Z,4.13
2023-07-12T08:34:05.107Z,4.55
2023-07-12T08:36:32.213Z,4.40
2023-07-12T08:38:59.565Z,4.53
2023-07-12T08:41:27.595Z,3.72
2023-07-12T08:43:55.133Z,5.28
2023-07-12T08:46:25.671Z,4.32
2023-07-12T08:49:00.842Z,4.65
2023-07-12T08:51:30.922Z,4.35
2023-07-12T08:56:28.043Z,4.32
2023-07-12T08:58:57.175Z,4.75
2023-07-12T09:01:46.420Z,5.10
2023-07-12T09:04:21.656Z,5.13
2023-07-12T09:06:51.860Z,5.10
2023-07-12T09:11:49.120Z,4.47
2023-07-12T09:14:19.071Z,4.97
2023-07-12T09:16:48.837Z,5.00
2023-07-12T09:19:17.355Z,5.20
2023-07-12T09:21:54.822Z,4.70
2023-07-12T09:24:25.806Z,5.10
2023-07-12T09:27:03.609Z,5.07
2023-07-12T09:29:32.628Z,4.82
2023-07-12T09:32:08.541Z,4.40
2023-07-12T09:34:39.074Z,5.15
2023-07-12T09:37:15.400Z,4.93
2023-07-12T09:39:42.689Z,5.18
2023-07-12T09:42:12.639Z,5.18
2023-07-12T09:44:39.707Z,5.30
2023-07-12T09:47:25.035Z,4.82
2023-07-12T09:50:18.709Z,5.18
2023-07-12T09:52:54.985Z,4.93
2023-07-12T09:55:33.404Z,4.40
2023-07-12T09:58:13.374Z,4.65
2023-07-12T10:00:52.720Z,4.80
2023-07-12T10:03:27.567Z,4.88
2023-07-12T10:06:16.175Z,4.65
2023-07-12T10:08:55.158Z,5.18
2023-07-12T10:11:37.613Z,6.20
2023-07-12T10:14:10.191Z,5.78
2023-07-12T10:16:46.290Z,6.32
2023-07-12T10:19:22.724Z,6.43
2023-07-12T10:21:52.219Z,7.15
2023-07-12T10:24:22.323Z,6.68
2023-07-12T10:26:49.530Z,7.75
2023-07-12T10:29:35.153Z,6.80
2023-07-12T10:32:07.172Z,7.57
2023-07-12T10:34:44.442Z,7.25
2023-07-12T10:37:37.114Z,5.80
2023-07-12T10:40:06.387Z,6.47
2023-07-12T10:42:41.748Z,8.80
2023-07-12T10:45:19.497Z,6.90
2023-07-12T10:47:48.915Z,6.25
2023-07-12T10:50:25.282Z,6.10
2023-07-12T10:55:45.662Z,6.00
2023-07-12T10:58:15.998Z,5.93
2023-07-12T11:00:56.006Z,6.28
2023-07-12T11:03:33.868Z,5.88
2023-07-12T11:06:07.445Z,5.25
2023-07-12T11:08:34.545Z,5.80
2023-07-12T11:11:10.797Z,6.40
2023-07-12T11:13:45.402Z,6.07
2023-07-12T11:16:18.182Z,5.78
2023-07-12T11:18:50.284Z,5.97
2023-07-12T11:21:47.222Z,5.57
2023-07-12T11:24:26.839Z,5.95
2023-07-12T11:27:00.085Z,6.63
2023-07-12T11:29:35.922Z,5.90
2023-07-12T11:32:21.689Z,5.97
2023-07-12T11:34:49.616Z,5.45
2023-07-12T11:37:22.569Z,6.03
2023-07-12T11:39:50.949Z,6.07
2023-07-12T11:42:29.375Z,6.13
2023-07-12T11:45:07.150Z,5.80
2023-07-12T11:47:36.130Z,5.47
2023-07-12T11:50:05.080Z,5.85
2023-07-12T11:52:32.575Z,5.57
2023-07-12T11:55:05.496Z,5.43
2023-07-12T11:57:40.876Z,6.05
2023-07-12T12:00:26.741Z,5.80
2023-07-12T12:02:57.117Z,5.55
2023-07-12T12:05:32.432Z,5.63
2023-07-12T12:08:03.534Z,5.50
2023-07-12T12:10:36.339Z,6.40
2023-07-12T12:13:21.780Z,6.68
2023-07-12T12:15:53.371Z,6.32
2023-07-12T12:18:23.732Z,6.18
2023-07-12T12:20:58.255Z,5.85
2023-07-12T12:23:56.125Z,6.25
2023-07-12T12:26:37.500Z,6.30
2023-07-12T12:29:18.154Z,6.65
2023-07-12T12:32:06.790Z,6.82
2023-07-12T12:34:38.030Z,6.57
2023-07-12T12:37:08.260Z,6.18
2023-07-12T12:42:22.882Z,6.00
2023-07-12T12:44:52.645Z,6.38
2023-07-12T12:47:31.993Z,6.30
2023-07-12T12:53:30.584Z,6.05
2023-07-12T12:58:16.915Z,7.53
2023-07-12T13:19:02.501Z,6.45
2023-07-12T13:21:25.088Z,6.13
2023-07-12T13:23:52.633Z,7.43
2023-07-12T13:26:22.558Z,7.35
2023-07-12T13:28:50.901Z,7.00
2023-07-12T13:31:20.639Z,6.25
2023-07-12T13:36:34.449Z,7.05
2023-07-12T13:46:46.362Z,6.93
2023-07-12T13:49:15.389Z,7.00
2023-07-12T13:51:43.352Z,6.90
2023-07-12T13:54:12.939Z,6.50
2023-07-12T14:09:23.071Z,7.15
2023-07-12T14:11:50.586Z,7.05
2023-07-12T14:14:17.792Z,7.32
2023-07-12T14:16:45.190Z,6.57
2023-07-12T14:19:12.449Z,7.80
2023-07-12T14:21:39.834Z,7.53
2023-07-12T14:24:07.305Z,7.53
2023-07-12T14:26:35.581Z,5.85
2023-07-12T14:29:06.147Z,6.95
2023-07-12T14:31:37.413Z,6.40
2023-07-12T14:34:05.864Z,7.15
2023-07-12T14:36:33.086Z,7.03
2023-07-12T14:39:01.264Z,7.68
2023-07-12T14:41:32.035Z,6.95
2023-07-12T14:44:12.729Z,7.25
2023-07-12T14:46:40.965Z,6.55
2023-07-12T14:49:08.127Z,7.13
2023-07-12T14:51:36.243Z,6.43
2023-07-12T14:54:05.792Z,7.00
2023-07-12T14:56:32.983Z,6.40
2023-07-12T14:59:00.295Z,7.88
2023-07-12T15:01:30.042Z,7.30
2023-07-12T15:04:08.817Z,7.75
2023-07-12T15:06:36.621Z,7.05
2023-07-12T15:09:08.459Z,6.57
2023-07-12T15:11:43.685Z,6.60
2023-07-12T15:14:14.379Z,5.82
2023-07-12T15:16:45.580Z,5.43
2023-07-12T15:19:13.034Z,6.18
2023-07-12T15:21:42.042Z,5.38
2023-07-12T15:24:15.129Z,6.40
2023-07-12T15:26:42.236Z,6.22
2023-07-12T15:29:09.328Z,5.97
2023-07-12T15:31:38.967Z,6.20
2023-07-12T15:34:07.013Z,6.50
2023-07-12T15:36:35.025Z,5.70
2023-07-12T15:39:02.496Z,6.13
2023-07-12T15:41:30.289Z,5.38
2023-07-12T15:43:59.256Z,6.18
2023-07-12T15:46:30.413Z,6.63
2023-07-12T15:48:58.944Z,5.95
2023-07-12T15:51:31.704Z,5.75
2023-07-12T15:53:59.647Z,5.18
2023-07-12T15:56:31.143Z,5.03
2023-07-12T15:59:00.205Z,6.00
2023-07-12T16:01:30.341Z,6.00
2023-07-12T16:03:57.911Z,5.57
2023-07-12T16:06:26.397Z,5.43
2023-07-12T16:08:53.853Z,5.57
2023-07-12T16:11:34.222Z,5.78
2023-07-12T16:14:11.028Z,5.55
2023-07-12T16:16:38.239Z,5.82
2023-07-12T16:19:06.910Z,5.93
2023-07-12T16:21:35.140Z,5.80
2023-07-12T16:24:03.276Z,6.03
2023-07-12T16:26:34.118Z,5.80
2023-07-12T16:29:02.956Z,6.47
2023-07-12T16:31:33.488Z,5.72
2023-07-12T16:34:01.942Z,5.65
2023-07-12T16:36:30.154Z,6.55
2023-07-12T16:38:58.719Z,5.70
2023-07-12T16:41:29.343Z,6.15
2023-07-12T16:43:59.793Z,5.35
2023-07-12T16:46:28.036Z,5.28
2023-07-12T16:48:55.435Z,5.75
2023-07-12T16:51:28.900Z,5.88
2023-07-12T16:53:56.433Z,4.90
2023-07-12T16:56:26.459Z,5.10
2023-07-12T16:58:55.256Z,5.05
2023-07-12T17:01:27.128Z,5.45
2023-07-12T17:03:56.006Z,6.25
2023-07-12T17:06:23.710Z,5.80
2023-07-12T17:08:52.270Z,5.88
2023-07-12T17:11:21.444Z,6.88
2023-07-12T17:13:48.614Z,8.05
2023-07-12T17:16:17.649Z,8.35
2023-07-12T17:18:45.247Z,6.70
2023-07-12T17:21:18.565Z,7.28
2023-07-12T17:23:47.248Z,6.22
2023-07-12T17:26:16.933Z,5.50
2023-07-12T17:28:46.296Z,4.97
2023-07-12T17:31:22.267Z,5.70
2023-07-12T17:33:49.948Z,6.28
2023-07-12T17:36:23.731Z,6.10
2023-07-12T17:38:51.559Z,4.82
2023-07-12T17:41:21.632Z,5.88
2023-07-12T17:43:49.203Z,7.82
2023-07-12T17:46:16.788Z,7.63
2023-07-12T17:48:45.277Z,8.55
2023-07-12T17:51:23.970Z,9.88
2023-07-12T17:53:52.575Z,7.93
2023-07-12T17:56:21.274Z,6.25
2023-07-12T17:58:48.752Z,6.47
2023-07-12T18:01:22.549Z,10.70
2023-07-12T18:03:50.836Z,8.05
2023-07-12T18:06:23.522Z,5.43
2023-07-12T18:08:51.432Z,6.45
2023-07-12T18:11:36.681Z,6.93
2023-07-12T18:14:05.524Z,5.50
2023-07-12T18:16:34.138Z,5.50
2023-07-12T18:19:01.966Z,5.70
2023-07-12T18:21:36.730Z,5.47
2023-07-12T18:24:07.019Z,5.53
2023-07-12T18:26:34.423Z,6.53
2023-07-12T18:29:01.712Z,6.13
2023-07-12T18:31:31.396Z,6.45
2023-07-12T18:34:00.620Z,5.70
2023-07-12T18:36:34.155Z,6.97
2023-07-12T18:39:06.710Z,7.63
2023-07-12T18:41:34.560Z,7.13
2023-07-12T18:44:01.969Z,12.50
2023-07-12T18:46:30.897Z,9.27
2023-07-12T18:48:58.277Z,8.25
2023-07-12T18:51:28.620Z,6.60
2023-07-12T18:53:56.168Z,6.85
2023-07-12T18:56:30.692Z,5.85
2023-07-12T18:58:59.694Z,6.28
2023-07-12T19:01:32.677Z,6.43
2023-07-12T19:04:06.833Z,6.93
2023-07-12T19:09:06.440Z,6.53
2023-07-12T19:11:43.728Z,6.70
2023-07-12T19:16:45.065Z,6.07
2023-07-12T19:19:12.196Z,6.25
2023-07-12T19:21:45.682Z,5.65
2023-07-12T19:24:13.974Z,6.68
2023-07-12T19:26:41.437Z,5.70
2023-07-12T19:29:10.026Z,6.07
2023-07-12T19:31:44.445Z,6.13
2023-07-12T19:34:16.802Z,6.93
2023-07-12T19:36:44.432Z,6.93
2023-07-12T19:39:12.087Z,5.82
2023-07-12T19:41:39.888Z,5.53
2023-07-12T19:44:07.067Z,6.00
2023-07-12T19:46:34.823Z,5.75
2023-07-12T19:49:02.280Z,6.32
2023-07-12T19:51:37.237Z,5.95
2023-07-12T19:54:06.479Z,5.60
2023-07-12T19:56:33.855Z,6.57
2023-07-12T19:59:02.380Z,5.47
2023-07-12T20:01:31.298Z,6.40
2023-07-12T20:04:00.172Z,6.00
2023-07-12T20:06:28.088Z,6.53
2023-07-12T20:08:56.829Z,5.18
2023-07-12T20:11:25.339Z,7.50
2023-07-12T20:13:54.301Z,5.65
2023-07-12T20:16:25.633Z,5.43
2023-07-12T20:18:53.245Z,6.07
2023-07-12T20:21:20.962Z,5.55
2023-07-12T20:23:49.483Z,5.78
2023-07-12T20:26:18.026Z,6.10
2023-07-12T20:28:45.809Z,5.18
2023-07-12T20:31:16.783Z,5.97
2023-07-12T20:33:44.761Z,5.55
2023-07-12T20:36:12.526Z,6.25
2023-07-12T20:38:39.896Z,5.13
2023-07-12T20:41:07.368Z,5.57
2023-07-12T20:43:35.287Z,5.30
2023-07-12T20:46:03.274Z,5.45
2023-07-12T20:48:35.993Z,5.22
2023-07-12T20:51:12.111Z,5.75
2023-07-12T20:53:44.774Z,5.55
2023-07-12T20:56:14.886Z,5.88
2023-07-12T20:58:43.069Z,6.78
2023-07-12T21:01:15.317Z,5.60
2023-07-12T21:03:42.673Z,5.47
2023-07-12T21:06:10.509Z,5.40
2023-07-12T21:08:38.355Z,5.57
2023-07-12T21:11:06.437Z,5.10
2023-07-12T21:13:34.640Z,5.25
2023-07-12T21:16:04.980Z,5.30
2023-07-12T21:20:59.350Z,5.85
2023-07-12T21:23:27.238Z,6.03
2023-07-12T21:25:54.410Z,5.25
2023-07-12T21:28:21.824Z,5.78
2023-07-12T21:30:50.628Z,5.65
2023-07-12T21:33:19.184Z,6.15
2023-07-12T21:35:52.046Z,5.57
2023-07-12T21:38:20.019Z,5.68
2023-07-12T21:40:48.102Z,5.57
2023-07-12T21:43:17.274Z,5.65
2023-07-12T21:45:44.836Z,6.97
2023-07-12T21:48:11.992Z,6.05
2023-07-12T21:50:41.894Z,6.45
2023-07-12T21:53:10.517Z,6.38
2023-07-12T21:55:37.613Z,5.88
2023-07-12T21:58:05.303Z,6.05
2023-07-12T22:00:32.336Z,6.10
2023-07-12T22:02:59.647Z,5.82
2023-07-12T22:05:27.884Z,6.03
2023-07-12T22:07:57.626Z,6.25
2023-07-12T22:10:27.927Z,6.40
2023-07-12T22:12:55.767Z,7.00
2023-07-12T22:15:24.158Z,6.05
2023-07-12T22:17:52.383Z,5.97
2023-07-12T22:20:20.637Z,5.30
2023-07-12T22:22:49.327Z,5.75
2023-07-12T22:25:19.214Z,6.22
2023-07-12T22:27:47.977Z,5.82
2023-07-12T22:30:37.008Z,6.15
2023-07-12T22:33:05.903Z,5.35
2023-07-12T22:35:34.298Z,5.95
2023-07-12T22:38:02.149Z,6.57
2023-07-12T22:40:30.494Z,5.65
2023-07-12T22:42:58.915Z,6.10
2023-07-12T22:45:27.626Z,6.55
2023-07-12T22:47:55.815Z,6.13
2023-07-12T22:50:24.061Z,5.82
2023-07-12T22:52:52.306Z,5.90
2023-07-12T22:55:20.604Z,6.35
2023-07-12T22:57:48.104Z,6.13
2023-07-12T23:00:18.564Z,5.88
2023-07-12T23:02:45.912Z,6.03
2023-07-12T23:05:15.994Z,4.93
2023-07-12T23:07:43.019Z,6.45
2023-07-12T23:10:10.860Z,5.22
2023-07-12T23:12:40.133Z,6.25
2023-07-12T23:15:11.057Z,5.78
2023-07-12T23:17:39.149Z,5.40
2023-07-12T23:20:12.368Z,5.90
2023-07-12T23:22:40.356Z,6.45
2023-07-12T23:25:08.845Z,5.53
2023-07-12T23:27:38.561Z,5.50
2023-07-12T23:30:07.261Z,6.65
2023-07-12T23:32:35.977Z,5.65
2023-07-12T23:35:04.581Z,6.13
2023-07-12T23:37:32.106Z,6.03
2023-07-12T23:39:59.210Z,6.43
2023-07-12T23:42:26.342Z,6.22
2023-07-12T23:44:53.569Z,5.13
2023-07-12T23:47:20.704Z,5.10
2023-07-12T23:49:47.841Z,5.82
2023-07-12T23:52:17.350Z,6.03
2023-07-12T23:54:45.450Z,6.13
2023-07-12T23:57:12.742Z,5.75
2023-07-12T23:59:39.818Z,5.25
